Urb Baldwin Park, Puerto Rico
Current Conditions -  °F | °C
As of 5:56 PM on Tuesday 25 Nov 2014 (Local Time) from TJSJ Reporting Station
Scattered Clouds Scattered Clouds  
Wind Chill: 80°   Ceiling: Unl
Heat Index: 84°   Visibility: 10mi
Dew Point: 72°   Wind: 15mph
Humidity: 76%   Direction: 70°ENE
Pressure: 30.01"   Gusts: NA
Location:  18.3866°N, 66.1135°W
Report Text: TJSJ 252156Z 07013KT 10SM SCT030 SCT110 27/22 A3001 RMK AO2 SLP160 T02670222
Loading
Personal Weather Stations






























Interactive Weather Map New forecast layout! Learn more

10-Day Weather Forecast

Advertisements
Track Severe Weather on mobile